sensor_id;sensor_type;location;lat;lon;timestamp;pressure;altitude;pressure_sealevel;temperature;humidity
50172;BME280;37125;48.824;2.410;2023-07-09T00:00:18;100941.42;;;30.10;39.42
50172;BME280;37125;48.824;2.410;2023-07-09T00:00:51;100942.50;;;30.07;39.50
50172;BME280;37125;48.824;2.410;2023-07-09T00:01:22;100942.18;;;30.03;39.59
50172;BME280;37125;48.824;2.410;2023-07-09T00:01:53;100942.95;;;30.00;39.68
50172;BME280;37125;48.824;2.410;2023-07-09T00:02:25;100942.67;;;29.98;39.72
50172;BME280;37125;48.824;2.410;2023-07-09T00:02:56;100942.16;;;29.95;39.78
50172;BME280;37125;48.824;2.410;2023-07-09T00:03:26;100943.18;;;29.99;39.66
50172;BME280;37125;48.824;2.410;2023-07-09T00:03:57;100942.12;;;30.01;39.66
50172;BME280;37125;48.824;2.410;2023-07-09T00:04:28;100944.49;;;30.01;39.63
50172;BME280;37125;48.824;2.410;2023-07-09T00:04:59;100945.85;;;30.08;39.50
50172;BME280;37125;48.824;2.410;2023-07-09T00:05:29;100945.96;;;30.09;39.47
50172;BME280;37125;48.824;2.410;2023-07-09T00:06:00;100947.66;;;30.05;39.57
50172;BME280;37125;48.824;2.410;2023-07-09T00:06:30;100947.82;;;30.05;39.55
50172;BME280;37125;48.824;2.410;2023-07-09T00:07:03;100946.73;;;30.07;39.53
50172;BME280;37125;48.824;2.410;2023-07-09T00:07:34;100950.47;;;30.03;39.59
50172;BME280;37125;48.824;2.410;2023-07-09T00:08:05;100950.63;;;30.04;39.61
50172;BME280;37125;48.824;2.410;2023-07-09T00:08:39;100951.09;;;30.02;39.64
50172;BME280;37125;48.824;2.410;2023-07-09T00:09:13;100951.60;;;30.07;39.55
50172;BME280;37125;48.824;2.410;2023-07-09T00:09:45;100950.91;;;30.03;39.62
50172;BME280;37125;48.824;2.410;2023-07-09T00:10:17;100953.94;;;30.00;39.69
50172;BME280;37125;48.824;2.410;2023-07-09T00:10:48;100953.66;;;30.01;39.67
50172;BME280;37125;48.824;2.410;2023-07-09T00:11:19;100953.37;;;30.00;39.71
50172;BME280;37125;48.824;2.410;2023-07-09T00:11:49;100953.70;;;30.00;39.68
50172;BME280;37125;48.824;2.410;2023-07-09T00:12:20;100956.81;;;30.03;39.65
50172;BME280;37125;48.824;2.410;2023-07-09T00:12:51;100955.70;;;30.04;39.64
50172;BME280;37125;48.824;2.410;2023-07-09T00:13:22;100957.81;;;30.06;39.61
50172;BME280;37125;48.824;2.410;2023-07-09T00:13:53;100956.50;;;30.01;39.70
50172;BME280;37125;48.824;2.410;2023-07-09T00:14:23;100956.98;;;29.96;39.80
50172;BME280;37125;48.824;2.410;2023-07-09T00:14:54;100957.96;;;30.01;39.66
50172;BME280;37125;48.824;2.410;2023-07-09T00:15:26;100956.54;;;30.05;39.61
50172;BME280;37125;48.824;2.410;2023-07-09T00:15:59;100958.53;;;30.03;39.67
50172;BME280;37125;48.824;2.410;2023-07-09T00:16:31;100958.94;;;29.98;39.78
50172;BME280;37125;48.824;2.410;2023-07-09T00:17:02;100957.79;;;29.97;39.78
50172;BME280;37125;48.824;2.410;2023-07-09T00:17:33;100956.32;;;30.00;39.72
50172;BME280;37125;48.824;2.410;2023-07-09T00:18:04;100956.36;;;29.99;39.75
50172;BME280;37125;48.824;2.410;2023-07-09T00:18:35;100955.56;;;30.02;39.68
50172;BME280;37125;48.824;2.410;2023-07-09T00:19:11;100956.25;;;29.98;39.77
50172;BME280;37125;48.824;2.410;2023-07-09T00:19:41;100954.88;;;30.01;39.71
50172;BME280;37125;48.824;2.410;2023-07-09T00:20:15;100956.79;;;30.05;39.63
50172;BME280;37125;48.824;2.410;2023-07-09T00:20:46;100955.83;;;30.05;39.65
50172;BME280;37125;48.824;2.410;2023-07-09T00:21:17;100958.27;;;30.01;39.74
50172;BME280;37125;48.824;2.410;2023-07-09T00:21:50;100957.21;;;30.01;39.74
50172;BME280;37125;48.824;2.410;2023-07-09T00:22:20;100959.40;;;29.97;39.82
50172;BME280;37125;48.824;2.410;2023-07-09T00:22:51;100957.81;;;29.93;39.91
50172;BME280;37125;48.824;2.410;2023-07-09T00:23:21;100959.89;;;29.96;39.87
50172;BME280;37125;48.824;2.410;2023-07-09T00:23:52;100961.76;;;29.95;39.90
50172;BME280;37125;48.824;2.410;2023-07-09T00:24:22;100960.18;;;29.90;40.01
50172;BME280;37125;48.824;2.410;2023-07-09T00:24:53;100961.25;;;29.97;39.87
50172;BME280;37125;48.824;2.410;2023-07-09T00:25:24;100959.81;;;29.96;39.87
50172;BME280;37125;48.824;2.410;2023-07-09T00:25:54;100962.46;;;29.96;39.85
50172;BME280;37125;48.824;2.410;2023-07-09T00:26:25;100961.61;;;30.00;39.80
50172;BME280;37125;48.824;2.410;2023-07-09T00:26:56;100962.07;;;30.01;39.78
50172;BME280;37125;48.824;2.410;2023-07-09T00:27:28;100961.14;;;29.98;39.86
50172;BME280;37125;48.824;2.410;2023-07-09T00:27:59;100963.69;;;29.94;39.93
50172;BME280;37125;48.824;2.410;2023-07-09T00:28:30;100962.08;;;29.95;39.93
50172;BME280;37125;48.824;2.410;2023-07-09T00:29:00;100961.62;;;29.98;39.87
50172;BME280;37125;48.824;2.410;2023-07-09T00:29:31;100962.09;;;30.00;39.85
50172;BME280;37125;48.824;2.410;2023-07-09T00:30:01;100963.12;;;29.99;39.84
50172;BME280;37125;48.824;2.410;2023-07-09T00:30:32;100964.13;;;29.95;39.94
50172;BME280;37125;48.824;2.410;2023-07-09T00:31:03;100963.09;;;29.95;39.94
50172;BME280;37125;48.824;2.410;2023-07-09T00:31:33;100964.53;;;29.95;39.90
50172;BME280;37125;48.824;2.410;2023-07-09T00:32:11;100965.34;;;29.95;39.93
50172;BME280;37125;48.824;2.410;2023-07-09T00:32:41;100966.92;;;29.95;39.94
50172;BME280;37125;48.824;2.410;2023-07-09T00:33:13;100966.64;;;29.95;39.90
50172;BME280;37125;48.824;2.410;2023-07-09T00:33:44;100966.74;;;30.00;39.83
50172;BME280;37125;48.824;2.410;2023-07-09T00:34:15;100966.34;;;29.99;39.83
50172;BME280;37125;48.824;2.410;2023-07-09T00:34:46;100965.11;;;29.98;39.84
50172;BME280;37125;48.824;2.410;2023-07-09T00:35:17;100963.83;;;29.97;39.91
50172;BME280;37125;48.824;2.410;2023-07-09T00:35:48;100964.18;;;29.96;39.93
50172;BME280;37125;48.824;2.410;2023-07-09T00:36:22;100962.12;;;29.95;39.97
50172;BME280;37125;48.824;2.410;2023-07-09T00:36:55;100963.07;;;29.97;39.88
50172;BME280;37125;48.824;2.410;2023-07-09T00:37:26;100964.33;;;30.00;39.84
50172;BME280;37125;48.824;2.410;2023-07-09T00:37:57;100964.69;;;30.00;39.83
50172;BME280;37125;48.824;2.410;2023-07-09T00:38:27;100967.76;;;29.95;39.96
50172;BME280;37125;48.824;2.410;2023-07-09T00:38:58;100968.61;;;29.96;39.94
50172;BME280;37125;48.824;2.410;2023-07-09T00:39:29;100969.70;;;29.98;39.90
50172;BME280;37125;48.824;2.410;2023-07-09T00:39:59;100969.58;;;29.96;39.95
50172;BME280;37125;48.824;2.410;2023-07-09T00:40:30;100970.07;;;29.92;40.04
50172;BME280;37125;48.824;2.410;2023-07-09T00:41:03;100972.53;;;29.98;39.91
50172;BME280;37125;48.824;2.410;2023-07-09T00:41:36;100971.61;;;29.93;40.00
50172;BME280;37125;48.824;2.410;2023-07-09T00:42:12;100973.05;;;29.94;39.99
50172;BME280;37125;48.824;2.410;2023-07-09T00:42:45;100972.13;;;29.97;39.94
50172;BME280;37125;48.824;2.410;2023-07-09T00:43:16;100972.70;;;29.96;39.95
50172;BME280;37125;48.824;2.410;2023-07-09T00:43:48;100972.31;;;29.97;39.93
50172;BME280;37125;48.824;2.410;2023-07-09T00:44:25;100971.67;;;29.99;39.88
50172;BME280;37125;48.824;2.410;2023-07-09T00:44:57;100972.07;;;29.96;39.95
50172;BME280;37125;48.824;2.410;2023-07-09T00:45:29;100971.02;;;29.96;39.94
50172;BME280;37125;48.824;2.410;2023-07-09T00:46:14;100972.95;;;29.98;39.91
50172;BME280;37125;48.824;2.410;2023-07-09T00:47:23;100973.22;;;30.02;39.83
50172;BME280;37125;48.824;2.410;2023-07-09T00:47:57;100971.36;;;30.00;39.90
50172;BME280;37125;48.824;2.410;2023-07-09T00:48:28;100974.81;;;29.94;40.04
50172;BME280;37125;48.824;2.410;2023-07-09T00:49:02;100972.37;;;29.94;40.00
50172;BME280;37125;48.824;2.410;2023-07-09T00:49:36;100972.49;;;30.02;39.82
50172;BME280;37125;48.824;2.410;2023-07-09T00:50:11;100974.22;;;30.05;39.79
50172;BME280;37125;48.824;2.410;2023-07-09T00:50:48;100976.98;;;30.02;39.88
50172;BME280;37125;48.824;2.410;2023-07-09T00:51:21;100977.04;;;29.98;39.96
50172;BME280;37125;48.824;2.410;2023-07-09T00:51:52;100975.33;;;29.96;40.00
50172;BME280;37125;48.824;2.410;2023-07-09T00:52:25;100976.35;;;29.97;39.98
50172;BME280;37125;48.824;2.410;2023-07-09T00:53:00;100977.11;;;29.96;40.00
50172;BME280;37125;48.824;2.410;2023-07-09T00:53:33;100980.69;;;29.97;39.96
50172;BME280;37125;48.824;2.410;2023-07-09T00:54:11;100981.68;;;29.92;40.06
50172;BME280;37125;48.824;2.410;2023-07-09T00:54:44;100983.07;;;29.95;40.01
50172;BME280;37125;48.824;2.410;2023-07-09T00:55:19;100980.80;;;30.00;39.91
50172;BME280;37125;48.824;2.410;2023-07-09T00:55:53;100980.41;;;30.03;39.87
50172;BME280;37125;48.824;2.410;2023-07-09T00:56:28;100981.03;;;30.06;39.78
50172;BME280;37125;48.824;2.410;2023-07-09T00:57:05;100980.38;;;30.04;39.80
50172;BME280;37125;48.824;2.410;2023-07-09T00:57:38;100978.82;;;30.03;39.84
50172;BME280;37125;48.824;2.410;2023-07-09T00:58:11;100980.78;;;29.99;39.95
50172;BME280;37125;48.824;2.410;2023-07-09T00:58:44;100980.95;;;29.94;40.06
50172;BME280;37125;48.824;2.410;2023-07-09T00:59:17;100982.69;;;29.97;39.99
50172;BME280;37125;48.824;2.410;2023-07-09T00:59:53;100981.65;;;30.04;39.82
50172;BME280;37125;48.824;2.410;2023-07-09T01:00:30;100982.79;;;29.98;39.98
50172;BME280;37125;48.824;2.410;2023-07-09T01:01:05;100983.63;;;30.03;39.86
50172;BME280;37125;48.824;2.410;2023-07-09T01:01:39;100982.61;;;30.06;39.80
50172;BME280;37125;48.824;2.410;2023-07-09T01:02:09;100982.88;;;30.03;39.85
50172;BME280;37125;48.824;2.410;2023-07-09T01:02:44;100984.13;;;30.05;39.82
50172;BME280;37125;48.824;2.410;2023-07-09T01:03:21;100983.65;;;30.05;39.86
50172;BME280;37125;48.824;2.410;2023-07-09T01:03:57;100983.66;;;30.07;39.78
50172;BME280;37125;48.824;2.410;2023-07-09T01:04:28;100985.43;;;30.07;39.79
50172;BME280;37125;48.824;2.410;2023-07-09T01:05:01;100982.74;;;30.04;39.88
50172;BME280;37125;48.824;2.410;2023-07-09T01:05:32;100982.92;;;30.01;39.93
50172;BME280;37125;48.824;2.410;2023-07-09T01:06:03;100985.04;;;30.00;39.97
50172;BME280;37125;48.824;2.410;2023-07-09T01:06:37;100984.23;;;29.97;40.04
50172;BME280;37125;48.824;2.410;2023-07-09T01:07:10;100984.16;;;29.92;40.13
50172;BME280;37125;48.824;2.410;2023-07-09T01:07:40;100985.36;;;29.92;40.12
50172;BME280;37125;48.824;2.410;2023-07-09T01:08:12;100984.45;;;29.92;40.13
50172;BME280;37125;48.824;2.410;2023-07-09T01:08:42;100986.14;;;29.98;40.00
50172;BME280;37125;48.824;2.410;2023-07-09T01:09:14;100984.95;;;30.00;39.94
50172;BME280;37125;48.824;2.410;2023-07-09T01:09:45;100985.34;;;30.02;39.93
50172;BME280;37125;48.824;2.410;2023-07-09T01:10:17;100984.18;;;30.04;39.87
50172;BME280;37125;48.824;2.410;2023-07-09T01:10:48;100985.78;;;30.04;39.85
50172;BME280;37125;48.824;2.410;2023-07-09T01:11:20;100985.88;;;30.03;39.90
50172;BME280;37125;48.824;2.410;2023-07-09T01:11:52;100985.97;;;30.06;39.86
50172;BME280;37125;48.824;2.410;2023-07-09T01:12:23;100986.38;;;30.07;39.81
50172;BME280;37125;48.824;2.410;2023-07-09T01:12:55;100990.04;;;30.04;39.88
50172;BME280;37125;48.824;2.410;2023-07-09T01:13:26;100989.23;;;30.06;39.85
50172;BME280;37125;48.824;2.410;2023-07-09T01:14:00;100989.75;;;30.03;39.91
50172;BME280;37125;48.824;2.410;2023-07-09T01:14:31;100990.08;;;30.02;39.91
50172;BME280;37125;48.824;2.410;2023-07-09T01:15:03;100988.68;;;30.05;39.87
50172;BME280;37125;48.824;2.410;2023-07-09T01:15:34;100990.92;;;30.04;39.91
50172;BME280;37125;48.824;2.410;2023-07-09T01:16:05;100989.82;;;30.07;39.84
50172;BME280;37125;48.824;2.410;2023-07-09T01:16:38;100990.81;;;30.04;39.92
50172;BME280;37125;48.824;2.410;2023-07-09T01:17:10;100989.85;;;30.04;39.94
50172;BME280;37125;48.824;2.410;2023-07-09T01:17:40;100992.50;;;30.05;39.90
50172;BME280;37125;48.824;2.410;2023-07-09T01:18:11;100991.11;;;30.05;39.90
50172;BME280;37125;48.824;2.410;2023-07-09T01:18:42;100993.63;;;30.06;39.85
50172;BME280;37125;48.824;2.410;2023-07-09T01:19:13;100991.10;;;30.10;39.76
50172;BME280;37125;48.824;2.410;2023-07-09T01:19:49;100990.27;;;30.05;39.84
50172;BME280;37125;48.824;2.410;2023-07-09T01:20:21;100993.22;;;30.01;39.96
50172;BME280;37125;48.824;2.410;2023-07-09T01:20:58;100993.04;;;30.01;39.98
50172;BME280;37125;48.824;2.410;2023-07-09T01:21:30;100992.01;;;30.01;39.96
50172;BME280;37125;48.824;2.410;2023-07-09T01:22:01;100992.29;;;29.99;40.01
50172;BME280;37125;48.824;2.410;2023-07-09T01:22:31;100992.96;;;29.99;40.03
50172;BME280;37125;48.824;2.410;2023-07-09T01:23:02;100993.76;;;29.99;40.02
50172;BME280;37125;48.824;2.410;2023-07-09T01:23:32;100994.20;;;30.02;39.98
50172;BME280;37125;48.824;2.410;2023-07-09T01:24:12;100991.97;;;30.00;40.00
50172;BME280;37125;48.824;2.410;2023-07-09T01:24:53;100992.90;;;30.01;39.96
50172;BME280;37125;48.824;2.410;2023-07-09T01:25:24;100990.92;;;30.01;39.94
50172;BME280;37125;48.824;2.410;2023-07-09T01:25:55;100991.12;;;30.00;39.99
50172;BME280;37125;48.824;2.410;2023-07-09T01:26:27;100989.87;;;29.99;40.01
50172;BME280;37125;48.824;2.410;2023-07-09T01:26:57;100992.46;;;30.02;39.96
50172;BME280;37125;48.824;2.410;2023-07-09T01:27:32;100991.66;;;30.01;39.99
50172;BME280;37125;48.824;2.410;2023-07-09T01:28:03;100992.10;;;30.02;39.93
50172;BME280;37125;48.824;2.410;2023-07-09T01:28:33;100991.45;;;30.01;39.97
50172;BME280;37125;48.824;2.410;2023-07-09T01:29:04;100991.43;;;30.04;39.93
50172;BME280;37125;48.824;2.410;2023-07-09T01:29:36;100991.21;;;30.01;39.97
50172;BME280;37125;48.824;2.410;2023-07-09T01:30:12;100990.89;;;29.98;40.05
50172;BME280;37125;48.824;2.410;2023-07-09T01:30:43;100991.80;;;29.99;40.03
50172;BME280;37125;48.824;2.410;2023-07-09T01:31:15;100990.58;;;29.99;40.03
50172;BME280;37125;48.824;2.410;2023-07-09T01:31:45;100990.88;;;29.99;40.07
50172;BME280;37125;48.824;2.410;2023-07-09T01:32:16;100990.24;;;30.01;40.01
50172;BME280;37125;48.824;2.410;2023-07-09T01:32:48;100991.72;;;30.01;39.98
50172;BME280;37125;48.824;2.410;2023-07-09T01:33:18;100992.44;;;30.01;40.03
50172;BME280;37125;48.824;2.410;2023-07-09T01:33:49;100991.39;;;30.00;40.05
50172;BME280;37125;48.824;2.410;2023-07-09T01:34:20;100991.54;;;29.97;40.09
50172;BME280;37125;48.824;2.410;2023-07-09T01:34:52;100991.29;;;30.01;40.00
50172;BME280;37125;48.824;2.410;2023-07-09T01:35:24;100991.93;;;30.01;40.03
50172;BME280;37125;48.824;2.410;2023-07-09T01:35:55;100994.44;;;30.01;40.00
50172;BME280;37125;48.824;2.410;2023-07-09T01:36:25;100993.01;;;30.02;39.98
50172;BME280;37125;48.824;2.410;2023-07-09T01:36:56;100994.00;;;29.99;40.04
50172;BME280;37125;48.824;2.410;2023-07-09T01:37:27;100994.16;;;29.97;40.08
50172;BME280;37125;48.824;2.410;2023-07-09T01:37:58;100993.24;;;30.00;40.04
50172;BME280;37125;48.824;2.410;2023-07-09T01:38:29;100994.37;;;30.01;40.03
50172;BME280;37125;48.824;2.410;2023-07-09T01:39:00;100996.16;;;30.03;39.98
50172;BME280;37125;48.824;2.410;2023-07-09T01:39:30;100997.40;;;30.01;40.00
50172;BME280;37125;48.824;2.410;2023-07-09T01:40:02;100999.16;;;30.02;40.00
50172;BME280;37125;48.824;2.410;2023-07-09T01:40:34;101000.98;;;30.03;39.97
50172;BME280;37125;48.824;2.410;2023-07-09T01:41:04;101001.82;;;30.01;40.03
50172;BME280;37125;48.824;2.410;2023-07-09T01:41:35;101003.82;;;30.02;40.03
50172;BME280;37125;48.824;2.410;2023-07-09T01:42:07;101003.27;;;30.06;39.94
50172;BME280;37125;48.824;2.410;2023-07-09T01:42:38;101003.19;;;30.05;39.96
50172;BME280;37125;48.824;2.410;2023-07-09T01:43:09;101004.68;;;30.03;40.01
50172;BME280;37125;48.824;2.410;2023-07-09T01:43:40;101006.08;;;30.01;40.03
50172;BME280;37125;48.824;2.410;2023-07-09T01:44:11;101006.32;;;30.00;40.06
50172;BME280;37125;48.824;2.410;2023-07-09T01:44:41;101007.00;;;30.04;39.97
50172;BME280;37125;48.824;2.410;2023-07-09T01:45:13;101006.97;;;30.00;40.07
50172;BME280;37125;48.824;2.410;2023-07-09T01:45:44;101009.94;;;30.00;40.10
50172;BME280;37125;48.824;2.410;2023-07-09T01:46:15;101007.59;;;30.00;40.06
50172;BME280;37125;48.824;2.410;2023-07-09T01:46:45;101007.26;;;30.00;40.10
50172;BME280;37125;48.824;2.410;2023-07-09T01:47:16;101008.17;;;30.01;40.05
50172;BME280;37125;48.824;2.410;2023-07-09T01:47:47;101005.79;;;30.04;40.00
50172;BME280;37125;48.824;2.410;2023-07-09T01:48:18;101007.39;;;30.07;39.94
50172;BME280;37125;48.824;2.410;2023-07-09T01:48:49;101007.43;;;30.04;40.01
50172;BME280;37125;48.824;2.410;2023-07-09T01:49:19;101007.82;;;30.02;40.03
50172;BME280;37125;48.824;2.410;2023-07-09T01:49:50;101007.38;;;29.99;40.09
50172;BME280;37125;48.824;2.410;2023-07-09T01:50:21;101008.46;;;29.98;40.13
50172;BME280;37125;48.824;2.410;2023-07-09T01:50:52;101010.34;;;29.95;40.21
50172;BME280;37125;48.824;2.410;2023-07-09T01:51:23;101009.47;;;29.97;40.16
50172;BME280;37125;48.824;2.410;2023-07-09T01:51:53;101010.03;;;29.99;40.13
50172;BME280;37125;48.824;2.410;2023-07-09T01:52:26;101010.31;;;30.01;40.12
50172;BME280;37125;48.824;2.410;2023-07-09T01:52:57;101010.44;;;29.97;40.19
50172;BME280;37125;48.824;2.410;2023-07-09T01:53:28;101011.06;;;29.98;40.17
50172;BME280;37125;48.824;2.410;2023-07-09T01:53:59;101012.27;;;29.99;40.18
50172;BME280;37125;48.824;2.410;2023-07-09T01:54:31;101012.47;;;30.00;40.16
50172;BME280;37125;48.824;2.410;2023-07-09T01:55:02;101011.94;;;30.00;40.17
50172;BME280;37125;48.824;2.410;2023-07-09T01:55:32;101012.80;;;29.99;40.17
50172;BME280;37125;48.824;2.410;2023-07-09T01:56:03;101015.92;;;30.04;40.06
50172;BME280;37125;48.824;2.410;2023-07-09T01:56:34;101014.71;;;30.02;40.15
50172;BME280;37125;48.824;2.410;2023-07-09T01:57:14;101018.20;;;29.99;40.19
50172;BME280;37125;48.824;2.410;2023-07-09T01:57:45;101019.64;;;29.98;40.20
50172;BME280;37125;48.824;2.410;2023-07-09T01:58:16;101018.95;;;29.99;40.18
50172;BME280;37125;48.824;2.410;2023-07-09T01:58:47;101020.78;;;30.00;40.14
50172;BME280;37125;48.824;2.410;2023-07-09T01:59:18;101020.12;;;30.00;40.14
50172;BME280;37125;48.824;2.410;2023-07-09T01:59:49;101019.94;;;30.01;40.12
50172;BME280;37125;48.824;2.410;2023-07-09T02:00:20;101022.26;;;29.99;40.20
50172;BME280;37125;48.824;2.410;2023-07-09T02:00:51;101019.21;;;30.03;40.12
50172;BME280;37125;48.824;2.410;2023-07-09T02:01:21;101019.86;;;30.01;40.15
50172;BME280;37125;48.824;2.410;2023-07-09T02:01:52;101020.87;;;30.00;40.17
50172;BME280;37125;48.824;2.410;2023-07-09T02:02:23;101021.83;;;29.99;40.19
50172;BME280;37125;48.824;2.410;2023-07-09T02:02:54;101021.09;;;29.98;40.20
50172;BME280;37125;48.824;2.410;2023-07-09T02:03:24;101020.76;;;29.99;40.20
50172;BME280;37125;48.824;2.410;2023-07-09T02:03:55;101021.40;;;30.00;40.19
50172;BME280;37125;48.824;2.410;2023-07-09T02:04:26;101019.00;;;30.04;40.11
50172;BME280;37125;48.824;2.410;2023-07-09T02:04:56;101020.45;;;30.03;40.10
50172;BME280;37125;48.824;2.410;2023-07-09T02:05:30;101019.66;;;30.04;40.07
50172;BME280;37125;48.824;2.410;2023-07-09T02:06:01;101022.58;;;30.04;40.09
50172;BME280;37125;48.824;2.410;2023-07-09T02:06:31;101021.33;;;30.01;40.15
50172;BME280;37125;48.824;2.410;2023-07-09T02:07:02;101020.85;;;30.01;40.19
50172;BME280;37125;48.824;2.410;2023-07-09T02:07:33;101021.12;;;30.01;40.16
50172;BME280;37125;48.824;2.410;2023-07-09T02:08:03;101022.09;;;30.04;40.09
50172;BME280;37125;48.824;2.410;2023-07-09T02:08:34;101020.76;;;30.02;40.13
50172;BME280;37125;48.824;2.410;2023-07-09T02:09:05;101019.22;;;30.00;40.15
50172;BME280;37125;48.824;2.410;2023-07-09T02:09:35;101021.01;;;30.01;40.18
50172;BME280;37125;48.824;2.410;2023-07-09T02:10:07;101018.71;;;30.01;40.24
50172;BME280;37125;48.824;2.410;2023-07-09T02:10:38;101019.00;;;30.04;40.17
50172;BME280;37125;48.824;2.410;2023-07-09T02:11:08;101019.35;;;30.04;40.17
50172;BME280;37125;48.824;2.410;2023-07-09T02:11:39;101018.54;;;30.05;40.17
50172;BME280;37125;48.824;2.410;2023-07-09T02:12:11;101018.34;;;30.05;40.14
50172;BME280;37125;48.824;2.410;2023-07-09T02:12:41;101017.87;;;30.04;40.15
50172;BME280;37125;48.824;2.410;2023-07-09T02:13:12;101018.08;;;30.05;40.11
50172;BME280;37125;48.824;2.410;2023-07-09T02:13:43;101019.14;;;30.06;40.12
50172;BME280;37125;48.824;2.410;2023-07-09T02:14:13;101018.87;;;30.05;40.13
50172;BME280;37125;48.824;2.410;2023-07-09T02:14:44;101019.76;;;30.02;40.17
50172;BME280;37125;48.824;2.410;2023-07-09T02:15:16;101019.90;;;30.06;40.05
50172;BME280;37125;48.824;2.410;2023-07-09T02:15:46;101021.10;;;30.01;40.22
50172;BME280;37125;48.824;2.410;2023-07-09T02:16:17;101021.38;;;30.04;40.14
50172;BME280;37125;48.824;2.410;2023-07-09T02:16:48;101022.26;;;30.04;40.13
50172;BME280;37125;48.824;2.410;2023-07-09T02:17:18;101022.00;;;30.05;40.12
50172;BME280;37125;48.824;2.410;2023-07-09T02:17:49;101023.00;;;30.03;40.16
50172;BME280;37125;48.824;2.410;2023-07-09T02:18:19;101024.06;;;30.03;40.19
50172;BME280;37125;48.824;2.410;2023-07-09T02:18:50;101025.67;;;29.99;40.25
50172;BME280;37125;48.824;2.410;2023-07-09T02:19:21;101021.00;;;30.06;40.09
50172;BME280;37125;48.824;2.410;2023-07-09T02:19:51;101025.02;;;30.02;40.20
50172;BME280;37125;48.824;2.410;2023-07-09T02:20:22;101024.26;;;30.00;40.26
50172;BME280;37125;48.824;2.410;2023-07-09T02:20:52;101021.92;;;30.00;40.25
50172;BME280;37125;48.824;2.410;2023-07-09T02:21:23;101023.46;;;30.00;40.21
50172;BME280;37125;48.824;2.410;2023-07-09T02:21:53;101024.00;;;30.00;40.23
50172;BME280;37125;48.824;2.410;2023-07-09T02:22:24;101023.01;;;30.00;40.24
50172;BME280;37125;48.824;2.410;2023-07-09T02:22:55;101019.87;;;30.04;40.16
50172;BME280;37125;48.824;2.410;2023-07-09T02:23:27;101022.45;;;30.03;40.23
50172;BME280;37125;48.824;2.410;2023-07-09T02:23:58;101018.96;;;30.03;40.20
50172;BME280;37125;48.824;2.410;2023-07-09T02:24:28;101019.40;;;30.04;40.16
50172;BME280;37125;48.824;2.410;2023-07-09T02:24:59;101018.43;;;30.02;40.25
50172;BME280;37125;48.824;2.410;2023-07-09T02:25:30;101015.59;;;30.03;40.20
50172;BME280;37125;48.824;2.410;2023-07-09T02:26:00;101016.54;;;29.99;40.33
50172;BME280;37125;48.824;2.410;2023-07-09T02:26:31;101016.62;;;29.97;40.33
50172;BME280;37125;48.824;2.410;2023-07-09T02:27:04;101015.90;;;29.96;40.32
50172;BME280;37125;48.824;2.410;2023-07-09T02:27:36;101017.22;;;29.96;40.36
50172;BME280;37125;48.824;2.410;2023-07-09T02:28:07;101014.67;;;29.95;40.41
50172;BME280;37125;48.824;2.410;2023-07-09T02:28:38;101018.33;;;29.98;40.33
50172;BME280;37125;48.824;2.410;2023-07-09T02:29:08;101019.38;;;29.98;40.39
50172;BME280;37125;48.824;2.410;2023-07-09T02:29:39;101017.07;;;30.00;40.29
50172;BME280;37125;48.824;2.410;2023-07-09T02:30:10;101019.58;;;29.99;40.26
50172;BME280;37125;48.824;2.410;2023-07-09T02:30:40;101020.72;;;29.97;40.38
50172;BME280;37125;48.824;2.410;2023-07-09T02:31:11;101019.21;;;29.96;40.34
50172;BME280;37125;48.824;2.410;2023-07-09T02:31:42;101022.32;;;29.97;40.32
50172;BME280;37125;48.824;2.410;2023-07-09T02:32:17;101018.86;;;30.01;40.26
50172;BME280;37125;48.824;2.410;2023-07-09T02:32:48;101017.67;;;30.02;40.23
50172;BME280;37125;48.824;2.410;2023-07-09T02:33:19;101015.23;;;30.01;40.24
50172;BME280;37125;48.824;2.410;2023-07-09T02:33:49;101014.26;;;29.98;40.28
50172;BME280;37125;48.824;2.410;2023-07-09T02:34:20;101011.88;;;30.02;40.25
50172;BME280;37125;48.824;2.410;2023-07-09T02:34:52;101011.60;;;29.99;40.30
50172;BME280;37125;48.824;2.410;2023-07-09T02:35:23;101012.18;;;30.02;40.32
50172;BME280;37125;48.824;2.410;2023-07-09T02:35:53;101013.15;;;30.04;40.26
50172;BME280;37125;48.824;2.410;2023-07-09T02:36:24;101009.46;;;30.01;40.30
50172;BME280;37125;48.824;2.410;2023-07-09T02:36:57;101008.20;;;30.01;40.38
50172;BME280;37125;48.824;2.410;2023-07-09T02:37:27;101011.17;;;29.99;40.33
50172;BME280;37125;48.824;2.410;2023-07-09T02:37:58;101010.92;;;30.01;40.39
50172;BME280;37125;48.824;2.410;2023-07-09T02:38:29;101012.96;;;29.99;40.36
50172;BME280;37125;48.824;2.410;2023-07-09T02:38:59;101014.18;;;30.00;40.38
50172;BME280;37125;48.824;2.410;2023-07-09T02:39:30;101015.40;;;30.01;40.32
50172;BME280;37125;48.824;2.410;2023-07-09T02:40:00;101016.03;;;30.01;40.30
50172;BME280;37125;48.824;2.410;2023-07-09T02:40:31;101018.79;;;29.98;40.38
50172;BME280;37125;48.824;2.410;2023-07-09T02:41:02;101017.29;;;30.00;40.39
50172;BME280;37125;48.824;2.410;2023-07-09T02:41:32;101016.77;;;29.99;40.31
50172;BME280;37125;48.824;2.410;2023-07-09T02:42:03;101018.06;;;29.99;40.34
50172;BME280;37125;48.824;2.410;2023-07-09T02:42:34;101019.49;;;29.98;40.33
50172;BME280;37125;48.824;2.410;2023-07-09T02:43:05;101018.88;;;29.96;40.37
50172;BME280;37125;48.824;2.410;2023-07-09T02:43:35;101018.09;;;29.97;40.38
50172;BME280;37125;48.824;2.410;2023-07-09T02:44:06;101017.03;;;30.00;40.35
50172;BME280;37125;48.824;2.410;2023-07-09T02:44:39;101017.52;;;29.98;40.43
50172;BME280;37125;48.824;2.410;2023-07-09T02:45:10;101017.54;;;30.00;40.38
50172;BME280;37125;48.824;2.410;2023-07-09T02:45:41;101016.22;;;30.01;40.31
50172;BME280;37125;48.824;2.410;2023-07-09T02:46:12;101015.17;;;30.03;40.27